Airfield :
LOGIN :

Register | Disclaimer

   EN    FR    IT 

 










Legend :    VFR   Marginal VFR   IFR   Intensive IFR   Very Intensive IFR
Visi :
Ceiling :
>= 8 km
>= 3000ft
5 to 8 km
1000 to 3000 ft
1500m to 5 km
500 to 1000 ft
800 to 1500m
200 to 500 ft
< 800m
< 200 ft
Symbols :   Thunderstorms  Fog  Heavy snow  Heavy precipitations  Wind > 20 kt
SIGMETs :     Misc.  Thunderstorms  Icing  Turbulence  Mountain Waves  Volcanic Ashes







- Airport Elevation : 587 ft
- IATA code : XCR
- Download approach charts


LFOK - Chalons Vatry

CURRENT METAR :
  • 240700Z AUTO 19009KT 1900 BR OVC003 12/12 Q1024 TEMPO 6000 NSW OVC006

EXPIRED METARs :
  • 240630Z AUTO 19007KT 2100 -DZ BR OVC003 12/12 Q1024 TEMPO 6000 NSW OVC006
  • 240600Z AUTO 19008KT 4200 BR OVC003 12/12 Q1024 TEMPO 6000 NSW OVC006
  • 240530Z AUTO 19007KT 6000 OVC003 12/12 Q1024 TEMPO OVC006
  • 240500Z AUTO 20009KT 4400 BR OVC002 12/12 Q1023 TEMPO 1500 DZRA
  • 240430Z AUTO 21010KT 2700 BR VV/// 12/12 Q1023 TEMPO DZRA OVC002

TAF TAF LFOK
Valid from the 24 at 06:00 until the 25 at 06:00 UTC


240500Z 2406/2506 21010KT 3000 BR OVC002
TEMPO 2406/2415 1300 DZRA
PROB40
TEMPO 2406/2420 6000 NSW OVC006
No reported NOTAMs for that airfield.



MET'MAP, your aeronautical weather chart ! - Copyright ORBIFLY December 2007 - Disclaimer

ORBIFLY MET'MAP TEAM :

Programming & Development : Alexandra Zaïnal
Concept & Development : Baudouin d'Aumeries
Co-Development & Prog : Marc-Olivier Méhu
Technical & hardware support : Manuel Goepfert

Contact : metmap@orbifly.com




SOURCES & CREDITS :

   NOAA